Time;durP1;ratioP1;P1;durP2;ratioP2;P2;SDS_P1;SDS_P2;PMS_P1;PMS_P2;Temp;Humidity;BMP_temperature;BMP_pressure;BME280_temperature;BME280_humidity;BME280_pressure;Samples;Min_cycle;Max_cycle;Signal;HPM_P1;HPM_P2
2024/03/28 00:00:56;;;;;;;;;;;;;;;;;;5025963;28;4622;-60
2024/03/28 00:03:22;;;;;;;;;;;;;;;;;;5021877;28;5064;-63
2024/03/28 00:05:57;;;;;;;;;;;;;;;;;;5022831;28;4572;-59
2024/03/28 00:08:23;;;;;;;;;;;;;;;;;;5022300;28;3454;-61
2024/03/28 00:10:48;;;;;;;;;;;;;;;;;;5020289;28;4541;-59
2024/03/28 00:13:14;;;;;;;;;;;;;;;;;;5019250;28;5040;-58
2024/03/28 00:15:39;;;;;;;;;;;;;;;;;;5020601;28;5057;-58
2024/03/28 00:18:05;;;;;;;;;;;;;;;;;;5022847;28;4542;-58
2024/03/28 00:20:31;;;;;;;;;;;;;;;;;;5020636;28;3363;-57
2024/03/28 00:22:56;;;;;;;;;;;;;;;;;;5020684;28;4885;-58
2024/03/28 00:25:21;;;;;;;;;;;;;;;;;;5025781;28;5028;-58
2024/03/28 00:27:47;;;;;;;;;;;;;;;;;;5029234;28;5230;-59
2024/03/28 00:30:12;;;;;;;;;;;;;;;;;;5025977;28;5249;-60
2024/03/28 00:32:37;;;;;;;;;;;;;;;;;;5028470;28;4751;-59
2024/03/28 00:35:03;;;;;;;;;;;;;;;;;;5022112;28;3392;-58
2024/03/28 00:37:28;;;;;;;;;;;;;;;;;;5018550;28;4763;-59
2024/03/28 00:39:54;;;;;;;;;;;;;;;;;;5015789;28;5084;-57
2024/03/28 00:42:19;;;;;;;;;;;;;;;;;;5024221;28;5024;-60
2024/03/28 00:44:45;;;;;;;;;;;;;;;;;;5022973;28;4541;-58
2024/03/28 00:47:10;;;;;;;;;;;;;;;;;;5019885;28;3361;-58
2024/03/28 00:49:35;;;;;;;;;;;;;;;;;;5021769;28;4726;-59
2024/03/28 00:52:01;;;;;;;;;;;;;;;;;;5019572;28;4629;-57
2024/03/28 00:54:26;;;;;;;;;;;;;;;;;;5017432;28;4946;-58
2024/03/28 00:56:51;;;;;;;;;;;;;;;;;;5019412;28;5121;-58
2024/03/28 00:59:17;;;;;;;;;;;;;;;;;;5020661;28;3672;-58
2024/03/28 01:01:42;;;;;;;;;;;;;;;;;;5020135;28;4691;-57
2024/03/28 01:04:07;;;;;;;;;;;;;;;;;;5017478;28;5112;-60
2024/03/28 01:06:33;;;;;;;;;;;;;;;;;;5020631;28;4543;-59
2024/03/28 01:08:58;;;;;;;;;;;;;;;;;;5017140;28;4538;-60
2024/03/28 01:11:24;;;;;;;;;;;;;;;;;;5016963;28;3431;-59
2024/03/28 01:13:49;;;;;;;;;;;;;;;;;;5014944;28;5109;-57
2024/03/28 01:16:14;;;;;;;;;;;;;;;;;;5022715;28;4558;-60
2024/03/28 01:18:40;;;;;;;;;;;;;;;;;;5025845;28;5092;-58
2024/03/28 01:21:05;;;;;;;;;;;;;;;;;;5025113;28;5271;-60
2024/03/28 01:23:30;;;;;;;;;;;;;;;;;;5021544;28;3324;-59
2024/03/28 01:25:56;;;;;;;;;;;;;;;;;;5021916;28;5038;-58
2024/03/28 01:28:21;;;;;;;;;;;;;;;;;;5016788;28;5197;-59
2024/03/28 01:30:47;;;;;;;;;;;;;;;;;;5020588;28;4761;-58
2024/03/28 01:33:12;;;;;;;;;;;;;;;;;;5022739;28;4878;-58
2024/03/28 01:35:37;;;;;;;;;;;;;;;;;;5022228;28;5085;-58
2024/03/28 01:38:03;;;;;;;;;;;;;;;;;;5026490;28;1898;-59
2024/03/28 01:40:28;;;;;;;;;;;;;;;;;;5014654;28;5253;-63
2024/03/28 01:43:02;;;;;;;;;;;;;;;;;;5014098;28;5245;-59
2024/03/28 01:45:28;;;;;;;;;;;;;;;;;;5023748;28;5165;-58
2024/03/28 01:47:53;;;;;;;;;;;;;;;;;;5018332;28;5182;-59
2024/03/28 01:50:18;;;;;;;;;;;;;;;;;;5023252;28;1306;-57
2024/03/28 01:52:44;;;;;;;;;;;;;;;;;;5026447;28;4963;-57
2024/03/28 01:55:09;;;;;;;;;;;;;;;;;;5020069;28;5071;-59
2024/03/28 01:57:34;;;;;;;;;;;;;;;;;;5020551;28;5519;-59
2024/03/28 02:00:00;;;;;;;;;;;;;;;;;;5025999;28;4948;-58
2024/03/28 02:02:25;;;;;;;;;;;;;;;;;;5022389;28;3113;-58
2024/03/28 02:04:50;;;;;;;;;;;;;;;;;;5024913;28;4939;-59
2024/03/28 02:07:16;;;;;;;;;;;;;;;;;;5024138;28;5058;-58
2024/03/28 02:09:41;;;;;;;;;;;;;;;;;;5023163;28;5032;-58
2024/03/28 02:12:06;;;;;;;;;;;;;;;;;;5018678;28;4540;-57
2024/03/28 02:14:32;;;;;;;;;;;;;;;;;;5017337;28;3404;-58
2024/03/28 02:17:04;;;;;;;;;;;;;;;;;;5020335;28;4932;-63
2024/03/28 02:19:30;;;;;;;;;;;;;;;;;;5018233;28;4956;-57
2024/03/28 02:21:56;;;;;;;;;;;;;;;;;;5020661;28;4972;-59
2024/03/28 02:24:21;;;;;;;;;;;;;;;;;;5021639;28;4722;-58
2024/03/28 02:26:46;;;;;;;;;;;;;;;;;;5023825;28;4515;-60
2024/03/28 02:29:12;;;;;;;;;;;;;;;;;;5024596;28;3395;-63
2024/03/28 02:31:37;;;;;;;;;;;;;;;;;;5020885;28;4964;-59
2024/03/28 02:34:02;;;;;;;;;;;;;;;;;;5023411;28;5361;-60
2024/03/28 02:36:28;;;;;;;;;;;;;;;;;;5020382;28;5104;-59
2024/03/28 02:38:53;;;;;;;;;;;;;;;;;;5025700;28;4901;-60
2024/03/28 02:41:19;;;;;;;;;;;;;;;;;;5024669;28;3312;-58
2024/03/28 02:43:45;;;;;;;;;;;;;;;;;;5020502;28;5358;-57
2024/03/28 02:46:11;;;;;;;;;;;;;;;;;;5025031;28;4534;-58
2024/03/28 02:48:36;;;;;;;;;;;;;;;;;;5022762;28;4583;-59
2024/03/28 02:51:01;;;;;;;;;;;;;;;;;;5027753;28;5141;-58
2024/03/28 02:53:27;;;;;;;;;;;;;;;;;;5026347;28;3268;-57
2024/03/28 02:55:52;;;;;;;;;;;;;;;;;;5014333;28;4663;-63
2024/03/28 02:58:18;;;;;;;;;;;;;;;;;;5021764;28;5012;-59
2024/03/28 03:00:43;;;;;;;;;;;;;;;;;;5022682;28;4740;-59
2024/03/28 03:03:08;;;;;;;;;;;;;;;;;;5018751;28;4706;-59
2024/03/28 03:05:34;;;;;;;;;;;;;;;;;;5022618;28;3936;-58
2024/03/28 03:08:01;;;;;;;;;;;;;;;;;;5024317;28;5030;-58
2024/03/28 03:10:27;;;;;;;;;;;;;;;;;;5020663;28;4497;-63
2024/03/28 03:12:52;;;;;;;;;;;;;;;;;;5020250;28;5127;-58
2024/03/28 03:15:17;;;;;;;;;;;;;;;;;;5016137;28;5154;-60
2024/03/28 03:17:43;;;;;;;;;;;;;;;;;;5019891;28;5211;-59
2024/03/28 03:20:08;;;;;;;;;;;;;;;;;;5015035;28;3339;-59
2024/03/28 03:22:35;;;;;;;;;;;;;;;;;;5020658;28;4471;-59
2024/03/28 03:25:10;;;;;;;;;;;;;;;;;;5016374;28;4563;-58
2024/03/28 03:34:34;;;;;;;;;;;;;;;;;;5022166;28;4769;-58
2024/03/28 03:35:48;;;;;;;;;;;;;;;;;;5018525;28;5205;-61
2024/03/28 03:38:13;;;;;;;;;;;;;;;;;;5021545;28;3413;-58
2024/03/28 03:40:38;;;;;;;;;;;;;;;;;;5011974;28;5128;-58
2024/03/28 03:43:04;;;;;;;;;;;;;;;;;;5019525;28;4547;-60
2024/03/28 03:45:29;;;;;;;;;;;;;;;;;;5022314;28;5203;-64
2024/03/28 03:47:54;;;;;;;;;;;;;;;;;;5016051;28;5166;-59
2024/03/28 03:50:20;;;;;;;;;;;;;;;;;;5018856;28;3280;-58
2024/03/28 03:52:45;;;;;;;;;;;;;;;;;;5017909;28;5089;-61
2024/03/28 03:55:11;;;;;;;;;;;;;;;;;;5019702;28;5117;-58
2024/03/28 03:57:36;;;;;;;;;;;;;;;;;;5019568;28;5188;-58
2024/03/28 04:00:01;;;;;;;;;;;;;;;;;;5020544;28;4686;-58
2024/03/28 04:02:27;;;;;;;;;;;;;;;;;;5017429;28;3398;-57
2024/03/28 04:04:52;;;;;;;;;;;;;;;;;;5026832;28;4934;-59
2024/03/28 04:07:17;;;;;;;;;;;;;;;;;;5019659;28;5152;-59
2024/03/28 04:09:43;;;;;;;;;;;;;;;;;;5025203;28;5158;-60
2024/03/28 04:12:08;;;;;;;;;;;;;;;;;;5029120;28;5135;-61
2024/03/28 04:14:33;;;;;;;;;;;;;;;;;;5025810;28;3284;-58
2024/03/28 04:16:59;;;;;;;;;;;;;;;;;;5021242;28;4878;-58
2024/03/28 04:19:24;;;;;;;;;;;;;;;;;;5026875;28;4676;-56
2024/03/28 04:21:50;;;;;;;;;;;;;;;;;;5022984;28;4485;-56
2024/03/28 04:24:15;;;;;;;;;;;;;;;;;;5018087;28;5449;-58
2024/03/28 04:26:40;;;;;;;;;;;;;;;;;;5021352;28;5125;-59
2024/03/28 04:29:06;;;;;;;;;;;;;;;;;;5022697;28;3337;-59
2024/03/28 04:31:31;;;;;;;;;;;;;;;;;;5023797;28;4754;-59
2024/03/28 04:33:57;;;;;;;;;;;;;;;;;;5023650;28;5122;-58
2024/03/28 04:36:22;;;;;;;;;;;;;;;;;;5023835;28;4711;-57
2024/03/28 04:38:47;;;;;;;;;;;;;;;;;;5025635;28;4763;-57
2024/03/28 04:41:13;;;;;;;;;;;;;;;;;;5024186;28;1192;-57
2024/03/28 04:43:39;;;;;;;;;;;;;;;;;;5027670;28;5119;-58
2024/03/28 04:46:04;;;;;;;;;;;;;;;;;;5026549;28;4582;-58
2024/03/28 04:48:29;;;;;;;;;;;;;;;;;;5023266;28;4602;-61
2024/03/28 04:50:55;;;;;;;;;;;;;;;;;;5039192;28;5118;-59
2024/03/28 04:53:21;;;;;;;;;;;;;;;;;;5027096;28;3364;-59
2024/03/28 04:55:46;;;;;;;;;;;;;;;;;;5020018;28;4458;-57
2024/03/28 04:58:11;;;;;;;;;;;;;;;;;;5020214;28;5071;-58
2024/03/28 05:00:37;;;;;;;;;;;;;;;;;;5019379;28;5104;-57
2024/03/28 05:03:02;;;;;;;;;;;;;;;;;;5018858;28;5127;-57
2024/03/28 05:05:28;;;;;;;;;;;;;;;;;;5024435;28;3366;-58
2024/03/28 05:07:53;;;;;;;;;;;;;;;;;;5025161;28;5072;-61
2024/03/28 05:10:18;;;;;;;;;;;;;;;;;;5021441;28;4525;-57
2024/03/28 05:12:44;;;;;;;;;;;;;;;;;;5024865;28;5016;-61
2024/03/28 05:15:10;;;;;;;;;;;;;;;;;;5022784;28;5172;-57
2024/03/28 05:17:35;;;;;;;;;;;;;;;;;;5021467;28;3435;-57
2024/03/28 05:20:01;;;;;;;;;;;;;;;;;;5026653;28;5023;-57
2024/03/28 05:22:26;;;;;;;;;;;;;;;;;;5020089;28;4522;-58
2024/03/28 05:24:51;;;;;;;;;;;;;;;;;;5019560;28;4554;-60
2024/03/28 05:27:17;;;;;;;;;;;;;;;;;;5025743;28;5147;-58
2024/03/28 05:29:42;;;;;;;;;;;;;;;;;;5020829;28;5348;-58
2024/03/28 05:32:08;;;;;;;;;;;;;;;;;;5019046;28;3443;-58
2024/03/28 05:34:33;;;;;;;;;;;;;;;;;;5026961;28;4745;-63
2024/03/28 05:36:58;;;;;;;;;;;;;;;;;;5018621;28;5189;-63
2024/03/28 05:39:24;;;;;;;;;;;;;;;;;;5013734;28;5025;-58
2024/03/28 05:41:49;;;;;;;;;;;;;;;;;;5018824;28;5010;-58
2024/03/28 05:44:14;;;;;;;;;;;;;;;;;;5022610;28;3527;-58
2024/03/28 05:46:40;;;;;;;;;;;;;;;;;;5025988;28;5273;-60
2024/03/28 05:49:05;;;;;;;;;;;;;;;;;;5025903;28;5153;-60
2024/03/28 05:51:31;;;;;;;;;;;;;;;;;;5023060;28;4961;-59
2024/03/28 05:53:56;;;;;;;;;;;;;;;;;;5021100;28;4518;-61
2024/03/28 05:56:21;;;;;;;;;;;;;;;;;;5025313;28;3368;-61
2024/03/28 05:58:47;;;;;;;;;;;;;;;;;;5025869;28;5103;-63
2024/03/28 06:01:16;;;;;;;;;;;;;;;;;;5026180;28;5139;-62
2024/03/28 06:03:42;;;;;;;;;;;;;;;;;;5016946;28;4561;-62
2024/03/28 06:06:07;;;;;;;;;;;;;;;;;;5028395;28;4566;-60
2024/03/28 06:08:33;;;;;;;;;;;;;;;;;;5023939;28;3355;-60
2024/03/28 06:10:58;;;;;;;;;;;;;;;;;;5025259;28;5090;-60
2024/03/28 06:13:26;;;;;;;;;;;;;;;;;;5028364;28;5068;-60
2024/03/28 06:15:52;;;;;;;;;;;;;;;;;;5027225;28;5468;-60
2024/03/28 06:18:17;;;;;;;;;;;;;;;;;;5022283;28;4675;-60
2024/03/28 06:20:42;;;;;;;;;;;;;;;;;;5030789;28;5174;-61
2024/03/28 06:23:08;;;;;;;;;;;;;;;;;;5020486;28;2036;-62
2024/03/28 06:25:37;;;;;;;;;;;;;;;;;;5023896;28;4853;-60
2024/03/28 06:28:03;;;;;;;;;;;;;;;;;;5022488;28;5159;-58
2024/03/28 06:30:30;;;;;;;;;;;;;;;;;;5025760;28;4576;-60
2024/03/28 06:32:56;;;;;;;;;;;;;;;;;;5027626;28;5127;-60
2024/03/28 06:35:22;;;;;;;;;;;;;;;;;;5028358;28;1306;-62
2024/03/28 06:37:47;;;;;;;;;;;;;;;;;;5022144;28;6034;-60
2024/03/28 06:40:13;;;;;;;;;;;;;;;;;;5023312;28;4980;-56
2024/03/28 06:42:38;;;;;;;;;;;;;;;;;;5018102;28;5187;-57
2024/03/28 06:45:04;;;;;;;;;;;;;;;;;;5022738;28;5111;-57
2024/03/28 06:47:29;;;;;;;;;;;;;;;;;;5028188;28;1116;-57
2024/03/28 06:49:54;;;;;;;;;;;;;;;;;;5021536;28;4977;-56
2024/03/28 06:52:20;;;;;;;;;;;;;;;;;;5026068;28;5261;-56
2024/03/28 06:54:45;;;;;;;;;;;;;;;;;;5026723;28;5012;-56
2024/03/28 06:57:11;;;;;;;;;;;;;;;;;;5027415;28;5164;-57
2024/03/28 06:59:36;;;;;;;;;;;;;;;;;;5023824;28;2502;-57
2024/03/28 07:02:01;;;;;;;;;;;;;;;;;;5022484;28;4550;-58
2024/03/28 07:04:27;;;;;;;;;;;;;;;;;;5026864;28;4895;-57
2024/03/28 07:06:53;;;;;;;;;;;;;;;;;;5018978;28;4637;-57
2024/03/28 07:09:18;;;;;;;;;;;;;;;;;;5020205;28;4534;-56
2024/03/28 07:11:45;;;;;;;;;;;;;;;;;;5027253;28;4477;-56
2024/03/28 07:14:12;;;;;;;;;;;;;;;;;;5036739;28;1329;-56
2024/03/28 07:16:37;;;;;;;;;;;;;;;;;;5026062;28;5176;-57
2024/03/28 07:19:03;;;;;;;;;;;;;;;;;;5026477;28;4509;-57
2024/03/28 07:21:28;;;;;;;;;;;;;;;;;;5021456;28;5105;-58
2024/03/28 07:23:54;;;;;;;;;;;;;;;;;;5025740;28;4503;-59
2024/03/28 07:26:19;;;;;;;;;;;;;;;;;;5027537;28;3505;-56
2024/03/28 07:28:44;;;;;;;;;;;;;;;;;;5024294;28;4522;-56
2024/03/28 07:31:10;;;;;;;;;;;;;;;;;;5025117;28;4650;-57
2024/03/28 07:33:35;;;;;;;;;;;;;;;;;;5023435;28;5078;-56
2024/03/28 07:36:00;;;;;;;;;;;;;;;;;;5025400;28;4580;-55
2024/03/28 07:38:26;;;;;;;;;;;;;;;;;;5020583;28;2443;-56
2024/03/28 07:40:52;;;;;;;;;;;;;;;;;;5025309;28;5084;-57
2024/03/28 07:43:17;;;;;;;;;;;;;;;;;;5024349;28;4716;-56
2024/03/28 07:45:43;;;;;;;;;;;;;;;;;;5025291;28;4994;-55
2024/03/28 07:48:08;;;;;;;;;;;;;;;;;;5025251;28;5005;-55
2024/03/28 07:50:34;;;;;;;;;;;;;;;;;;5025908;28;1108;-56
2024/03/28 07:52:59;;;;;;;;;;;;;;;;;;5015818;28;5158;-56
2024/03/28 07:55:24;;;;;;;;;;;;;;;;;;5022503;28;4509;-56
2024/03/28 07:57:50;;;;;;;;;;;;;;;;;;5017192;28;5064;-56
2024/03/28 08:00:16;;;;;;;;;;;;;;;;;;5024839;28;4770;-56
2024/03/28 08:02:43;;;;;;;;;;;;;;;;;;5026796;28;5090;-55
2024/03/28 08:05:08;;;;;;;;;;;;;;;;;;5025556;28;3202;-58
2024/03/28 08:07:34;;;;;;;;;;;;;;;;;;5019738;28;5126;-54
2024/03/28 08:09:59;;;;;;;;;;;;;;;;;;5026567;28;4541;-56
2024/03/28 08:12:25;;;;;;;;;;;;;;;;;;5026631;28;5260;-55
2024/03/28 08:14:50;;;;;;;;;;;;;;;;;;5020648;28;5153;-55
2024/03/28 08:17:16;;;;;;;;;;;;;;;;;;5024420;28;2575;-56
2024/03/28 08:19:42;;;;;;;;;;;;;;;;;;5023114;28;5166;-57
2024/03/28 08:22:08;;;;;;;;;;;;;;;;;;5020077;28;4579;-55
2024/03/28 08:24:33;;;;;;;;;;;;;;;;;;5026490;28;6041;-56
2024/03/28 08:26:59;;;;;;;;;;;;;;;;;;5026851;28;5556;-57
2024/03/28 08:29:25;;;;;;;;;;;;;;;;;;5027256;28;1256;-58
2024/03/28 08:31:50;;;;;;;;;;;;;;;;;;5016182;28;4949;-57
2024/03/28 08:34:15;;;;;;;;;;;;;;;;;;5029754;28;4688;-57
2024/03/28 08:36:41;;;;;;;;;;;;;;;;;;5027337;28;5356;-58
2024/03/28 08:39:07;;;;;;;;;;;;;;;;;;5029927;28;5001;-57
2024/03/28 08:41:32;;;;;;;;;;;;;;;;;;5022946;28;3150;-57
2024/03/28 08:43:57;;;;;;;;;;;;;;;;;;5025797;28;4980;-57
2024/03/28 08:46:24;;;;;;;;;;;;;;;;;;5029635;28;5017;-60
2024/03/28 08:48:49;;;;;;;;;;;;;;;;;;5030100;28;5023;-57
2024/03/28 08:51:17;;;;;;;;;;;;;;;;;;5021144;28;4570;-58
2024/03/28 08:53:43;;;;;;;;;;;;;;;;;;5023729;28;4501;-57
2024/03/28 08:56:08;;;;;;;;;;;;;;;;;;5036847;28;3464;-56
2024/03/28 08:58:34;;;;;;;;;;;;;;;;;;5018477;28;6042;-58
2024/03/28 09:01:00;;;;;;;;;;;;;;;;;;5030850;28;4575;-59
2024/03/28 09:03:26;;;;;;;;;;;;;;;;;;5024982;28;5053;-58
2024/03/28 09:05:51;;;;;;;;;;;;;;;;;;5024620;28;4778;-57
2024/03/28 09:08:16;;;;;;;;;;;;;;;;;;5030257;28;1171;-56
2024/03/28 09:10:44;;;;;;;;;;;;;;;;;;5034470;28;5256;-55
2024/03/28 09:13:09;;;;;;;;;;;;;;;;;;5039767;28;4489;-55
2024/03/28 09:15:34;;;;;;;;;;;;;;;;;;5021539;28;4747;-55
2024/03/28 09:18:00;;;;;;;;;;;;;;;;;;5027803;28;5255;-56
2024/03/28 09:20:26;;;;;;;;;;;;;;;;;;5020610;28;3367;-56
2024/03/28 09:22:52;;;;;;;;;;;;;;;;;;5029779;28;4507;-56
2024/03/28 09:25:18;;;;;;;;;;;;;;;;;;5020713;28;4625;-56
2024/03/28 09:27:44;;;;;;;;;;;;;;;;;;5028756;28;4825;-56
2024/03/28 09:30:11;;;;;;;;;;;;;;;;;;5018439;28;4718;-55
2024/03/28 09:32:37;;;;;;;;;;;;;;;;;;5028686;28;3257;-57
2024/03/28 09:35:02;;;;;;;;;;;;;;;;;;5024572;28;5150;-55
2024/03/28 09:37:28;;;;;;;;;;;;;;;;;;5026937;28;4560;-57
2024/03/28 09:39:53;;;;;;;;;;;;;;;;;;5027288;28;5067;-57
2024/03/28 09:42:19;;;;;;;;;;;;;;;;;;5007633;28;5222;-56
2024/03/28 09:44:44;;;;;;;;;;;;;;;;;;5023513;28;4630;-56
2024/03/28 09:47:09;;;;;;;;;;;;;;;;;;5022693;28;1218;-56
2024/03/28 09:49:35;;;;;;;;;;;;;;;;;;5027505;28;4614;-56
2024/03/28 09:52:01;;;;;;;;;;;;;;;;;;5025064;28;4562;-56
2024/03/28 09:54:26;;;;;;;;;;;;;;;;;;5022944;28;5617;-57
2024/03/28 09:56:53;;;;;;;;;;;;;;;;;;5026896;28;4529;-56
2024/03/28 09:59:20;;;;;;;;;;;;;;;;;;5033332;28;2025;-58
2024/03/28 10:01:45;;;;;;;;;;;;;;;;;;5027430;28;5031;-57
2024/03/28 10:04:13;;;;;;;;;;;;;;;;;;5023210;28;5019;-56
2024/03/28 10:06:55;;;;;;;;;;;;;;;;;;5026243;28;4548;-56
2024/03/28 10:09:21;;;;;;;;;;;;;;;;;;5020966;28;5123;-56
2024/03/28 10:11:48;;;;;;;;;;;;;;;;;;5027935;28;5125;-58
2024/03/28 10:14:26;;;;;;;;;;;;;;;;;;5029132;28;1176;-57
2024/03/28 10:16:58;;;;;;;;;;;;;;;;;;5025843;28;4968;-57
2024/03/28 10:19:28;;;;;;;;;;;;;;;;;;5024883;28;4589;-57
2024/03/28 10:22:03;;;;;;;;;;;;;;;;;;5021785;28;5170;-57
2024/03/28 10:24:28;;;;;;;;;;;;;;;;;;5024402;28;5014;-57
2024/03/28 10:26:53;;;;;;;;;;;;;;;;;;5017166;28;5230;-57
2024/03/28 10:29:19;;;;;;;;;;;;;;;;;;5028477;28;1160;-57
2024/03/28 10:31:45;;;;;;;;;;;;;;;;;;5026550;28;4505;-56
2024/03/28 10:34:16;;;;;;;;;;;;;;;;;;5017973;28;5062;-57
2024/03/28 10:36:42;;;;;;;;;;;;;;;;;;5012898;28;4994;-56
2024/03/28 10:39:08;;;;;;;;;;;;;;;;;;5026641;28;5067;-56
2024/03/28 10:41:34;;;;;;;;;;;;;;;;;;5026686;28;1143;-57
2024/03/28 10:44:00;;;;;;;;;;;;;;;;;;5015847;28;4501;-56
2024/03/28 10:46:26;;;;;;;;;;;;;;;;;;5027852;28;5119;-56
2024/03/28 10:48:52;;;;;;;;;;;;;;;;;;5024685;28;4504;-58
2024/03/28 10:51:17;;;;;;;;;;;;;;;;;;5024358;28;4574;-57
2024/03/28 10:53:55;;;;;;;;;;;;;;;;;;5024601;28;4544;-56
2024/03/28 10:56:21;;;;;;;;;;;;;;;;;;5025895;28;1126;-56
2024/03/28 10:58:46;;;;;;;;;;;;;;;;;;5019702;28;5072;-57
2024/03/28 11:01:12;;;;;;;;;;;;;;;;;;5022377;28;5045;-57
2024/03/28 11:03:38;;;;;;;;;;;;;;;;;;5023745;28;4951;-57
2024/03/28 11:06:04;;;;;;;;;;;;;;;;;;5018307;28;5171;-57
2024/03/28 11:08:30;;;;;;;;;;;;;;;;;;5026414;28;3350;-57
2024/03/28 11:10:55;;;;;;;;;;;;;;;;;;5023300;28;5237;-57
2024/03/28 11:13:21;;;;;;;;;;;;;;;;;;5026242;28;4688;-56
2024/03/28 11:15:47;;;;;;;;;;;;;;;;;;5020286;28;5180;-56
2024/03/28 11:18:15;;;;;;;;;;;;;;;;;;5018235;28;4708;-57
2024/03/28 11:20:50;;;;;;;;;;;;;;;;;;5026586;28;5280;-57
2024/03/28 11:23:15;;;;;;;;;;;;;;;;;;5019813;28;3323;-57
2024/03/28 11:25:46;;;;;;;;;;;;;;;;;;5023001;28;4922;-57
2024/03/28 11:28:11;;;;;;;;;;;;;;;;;;5019217;28;4500;-56
2024/03/28 11:30:37;;;;;;;;;;;;;;;;;;5023136;28;4517;-56
2024/03/28 11:33:13;;;;;;;;;;;;;;;;;;5026236;28;5162;-56
2024/03/28 11:35:39;;;;;;;;;;;;;;;;;;5025087;28;5299;-57
2024/03/28 11:38:05;;;;;;;;;;;;;;;;;;5009279;28;1903;-57
2024/03/28 11:40:30;;;;;;;;;;;;;;;;;;5021185;28;5229;-56
2024/03/28 11:43:14;;;;;;;;;;;;;;;;;;5026854;28;4481;-56
2024/03/28 11:45:55;;;;;;;;;;;;;;;;;;5041243;28;5019;-57
2024/03/28 11:48:23;;;;;;;;;;;;;;;;;;5020736;28;5068;-56
2024/03/28 11:50:49;;;;;;;;;;;;;;;;;;5015487;28;5117;-57
2024/03/28 11:53:14;;;;;;;;;;;;;;;;;;5023374;28;1311;-56
2024/03/28 11:55:43;;;;;;;;;;;;;;;;;;5026894;28;4696;-57
2024/03/28 11:58:39;;;;;;;;;;;;;;;;;;5023780;28;5062;-57
2024/03/28 12:01:05;;;;;;;;;;;;;;;;;;5012949;28;4686;-56
2024/03/28 12:03:30;;;;;;;;;;;;;;;;;;5022910;28;5176;-56
2024/03/28 12:05:56;;;;;;;;;;;;;;;;;;5018204;28;5268;-57
2024/03/28 12:08:22;;;;;;;;;;;;;;;;;;5023424;28;1160;-57
2024/03/28 12:10:47;;;;;;;;;;;;;;;;;;5022202;28;5164;-56
2024/03/28 12:13:13;;;;;;;;;;;;;;;;;;5030429;28;5045;-56
2024/03/28 12:15:38;;;;;;;;;;;;;;;;;;5030247;28;4496;-56
2024/03/28 12:18:03;;;;;;;;;;;;;;;;;;5030461;28;4740;-58
2024/03/28 12:20:30;;;;;;;;;;;;;;;;;;5026800;28;3355;-57
2024/03/28 12:22:56;;;;;;;;;;;;;;;;;;5044576;28;4551;-56
2024/03/28 12:25:21;;;;;;;;;;;;;;;;;;5028338;28;4700;-56
2024/03/28 12:27:59;;;;;;;;;;;;;;;;;;5021097;28;4656;-57
2024/03/28 12:30:27;;;;;;;;;;;;;;;;;;5030246;28;4463;-60
2024/03/28 12:33:02;;;;;;;;;;;;;;;;;;5030227;28;5130;-56
2024/03/28 12:35:32;;;;;;;;;;;;;;;;;;5025301;28;3248;-57
2024/03/28 12:37:57;;;;;;;;;;;;;;;;;;5036895;28;5510;-57
2024/03/28 12:40:24;;;;;;;;;;;;;;;;;;5024120;28;5173;-57
2024/03/28 12:42:50;;;;;;;;;;;;;;;;;;5026718;28;4484;-57
2024/03/28 12:45:16;;;;;;;;;;;;;;;;;;5023908;28;4888;-56
2024/03/28 12:47:47;;;;;;;;;;;;;;;;;;5028369;28;5153;-56
2024/03/28 12:50:13;;;;;;;;;;;;;;;;;;5022653;28;3268;-56
2024/03/28 12:52:39;;;;;;;;;;;;;;;;;;5030448;28;4647;-55
2024/03/28 12:55:04;;;;;;;;;;;;;;;;;;5017389;28;4757;-56
2024/03/28 12:57:30;;;;;;;;;;;;;;;;;;5019937;28;5030;-57
2024/03/28 12:59:55;;;;;;;;;;;;;;;;;;5029370;28;4510;-57
2024/03/28 13:02:20;;;;;;;;;;;;;;;;;;5029881;28;2098;-56
2024/03/28 13:04:46;;;;;;;;;;;;;;;;;;5025420;28;5022;-57
2024/03/28 13:07:12;;;;;;;;;;;;;;;;;;5026199;28;5077;-57
2024/03/28 13:09:39;;;;;;;;;;;;;;;;;;5029697;28;4487;-56
2024/03/28 13:12:04;;;;;;;;;;;;;;;;;;5020506;28;4536;-56
2024/03/28 13:14:31;;;;;;;;;;;;;;;;;;5023433;28;3073;-57
2024/03/28 13:16:57;;;;;;;;;;;;;;;;;;5029078;28;4540;-57
2024/03/28 13:19:23;;;;;;;;;;;;;;;;;;5026461;28;4667;-57
2024/03/28 13:21:50;;;;;;;;;;;;;;;;;;5029270;28;5091;-56
2024/03/28 13:24:15;;;;;;;;;;;;;;;;;;5024878;28;4973;-55
2024/03/28 13:26:43;;;;;;;;;;;;;;;;;;5028324;28;5077;-57
2024/03/28 13:29:08;;;;;;;;;;;;;;;;;;5017793;28;3303;-56
2024/03/28 13:31:35;;;;;;;;;;;;;;;;;;5024911;28;4627;-56
2024/03/28 13:34:01;;;;;;;;;;;;;;;;;;5027232;28;5031;-57
2024/03/28 13:36:27;;;;;;;;;;;;;;;;;;5028328;28;4697;-56
2024/03/28 13:38:53;;;;;;;;;;;;;;;;;;5020544;28;4791;-56
2024/03/28 13:41:19;;;;;;;;;;;;;;;;;;5019633;28;1128;-56
2024/03/28 13:43:44;;;;;;;;;;;;;;;;;;5028892;28;5074;-55
2024/03/28 13:46:09;;;;;;;;;;;;;;;;;;5027765;28;4502;-56
2024/03/28 13:48:37;;;;;;;;;;;;;;;;;;5023687;28;5053;-56
2024/03/28 13:51:02;;;;;;;;;;;;;;;;;;5023237;28;4650;-56
2024/03/28 13:53:30;;;;;;;;;;;;;;;;;;5029255;28;2155;-58
2024/03/28 13:55:55;;;;;;;;;;;;;;;;;;5026426;28;5166;-58
2024/03/28 13:58:20;;;;;;;;;;;;;;;;;;5024239;28;4698;-56
2024/03/28 14:00:46;;;;;;;;;;;;;;;;;;5025364;28;4532;-56
2024/03/28 14:03:11;;;;;;;;;;;;;;;;;;5024518;28;4483;-55
2024/03/28 14:05:36;;;;;;;;;;;;;;;;;;5016235;28;3349;-56
2024/03/28 14:08:02;;;;;;;;;;;;;;;;;;5019014;28;4953;-56
2024/03/28 14:10:27;;;;;;;;;;;;;;;;;;5026110;28;5940;-56
2024/03/28 14:12:52;;;;;;;;;;;;;;;;;;5023256;28;4686;-56
2024/03/28 14:15:18;;;;;;;;;;;;;;;;;;5022044;28;4986;-58
2024/03/28 14:17:43;;;;;;;;;;;;;;;;;;5027662;28;5048;-56
2024/03/28 14:20:09;;;;;;;;;;;;;;;;;;5023729;28;3243;-56
2024/03/28 14:22:35;;;;;;;;;;;;;;;;;;5022224;28;4487;-56
2024/03/28 14:25:00;;;;;;;;;;;;;;;;;;5027648;28;4648;-56
2024/03/28 14:27:26;;;;;;;;;;;;;;;;;;5027897;28;4458;-55
2024/03/28 14:29:51;;;;;;;;;;;;;;;;;;5022073;28;5108;-58
2024/03/28 14:32:17;;;;;;;;;;;;;;;;;;5013695;28;3184;-58
2024/03/28 14:34:42;;;;;;;;;;;;;;;;;;5018658;28;5102;-55
2024/03/28 14:37:07;;;;;;;;;;;;;;;;;;5024568;28;5116;-58
2024/03/28 14:39:33;;;;;;;;;;;;;;;;;;5025705;28;4602;-57
2024/03/28 14:41:58;;;;;;;;;;;;;;;;;;5027589;28;5208;-56
2024/03/28 14:44:25;;;;;;;;;;;;;;;;;;5017197;28;3318;-58
2024/03/28 14:46:51;;;;;;;;;;;;;;;;;;5018576;28;5030;-57
2024/03/28 14:49:16;;;;;;;;;;;;;;;;;;5020051;28;4957;-57
2024/03/28 14:51:42;;;;;;;;;;;;;;;;;;5027478;28;4830;-57
2024/03/28 14:54:07;;;;;;;;;;;;;;;;;;5025903;28;4640;-57
2024/03/28 14:56:32;;;;;;;;;;;;;;;;;;5028401;28;1253;-57
2024/03/28 14:58:58;;;;;;;;;;;;;;;;;;5018918;28;5079;-57
2024/03/28 15:01:23;;;;;;;;;;;;;;;;;;5027443;28;4499;-55
2024/03/28 15:03:48;;;;;;;;;;;;;;;;;;5020890;28;5095;-57
2024/03/28 15:06:14;;;;;;;;;;;;;;;;;;5022981;28;4551;-57
2024/03/28 15:08:39;;;;;;;;;;;;;;;;;;5027900;28;4877;-57
2024/03/28 15:11:05;;;;;;;;;;;;;;;;;;5027332;28;1076;-57
2024/03/28 15:13:35;;;;;;;;;;;;;;;;;;5019090;28;4517;-57
2024/03/28 15:16:00;;;;;;;;;;;;;;;;;;5024210;28;5034;-57
2024/03/28 15:18:26;;;;;;;;;;;;;;;;;;5024205;28;5202;-56
2024/03/28 15:20:51;;;;;;;;;;;;;;;;;;5027161;28;5138;-57
2024/03/28 15:23:16;;;;;;;;;;;;;;;;;;5022852;28;1084;-57
2024/03/28 15:25:42;;;;;;;;;;;;;;;;;;5026848;28;5094;-57
2024/03/28 15:28:07;;;;;;;;;;;;;;;;;;5025720;28;4477;-58
2024/03/28 15:30:33;;;;;;;;;;;;;;;;;;5025430;28;4937;-57
2024/03/28 15:32:58;;;;;;;;;;;;;;;;;;5023935;28;5214;-61
2024/03/28 15:35:23;;;;;;;;;;;;;;;;;;5017758;28;3298;-58
2024/03/28 15:37:49;;;;;;;;;;;;;;;;;;5018907;28;4826;-57
2024/03/28 15:40:20;;;;;;;;;;;;;;;;;;5022643;28;5776;-58
2024/03/28 15:42:45;;;;;;;;;;;;;;;;;;5020387;28;5240;-58
2024/03/28 15:45:10;;;;;;;;;;;;;;;;;;5023203;28;5228;-55
2024/03/28 15:47:36;;;;;;;;;;;;;;;;;;5020743;28;3361;-57
2024/03/28 15:50:01;;;;;;;;;;;;;;;;;;5023031;28;5151;-58
2024/03/28 15:52:26;;;;;;;;;;;;;;;;;;5031096;28;4889;-57
2024/03/28 15:54:52;;;;;;;;;;;;;;;;;;5031228;28;4515;-57
2024/03/28 15:57:18;;;;;;;;;;;;;;;;;;5024886;28;5133;-57
2024/03/28 15:59:43;;;;;;;;;;;;;;;;;;5019248;28;4952;-57
2024/03/28 16:02:08;;;;;;;;;;;;;;;;;;5029162;28;3329;-57
2024/03/28 16:04:34;;;;;;;;;;;;;;;;;;5017421;28;5235;-58
2024/03/28 16:06:59;;;;;;;;;;;;;;;;;;5029328;28;5193;-57
2024/03/28 16:09:25;;;;;;;;;;;;;;;;;;5028980;28;5103;-57
2024/03/28 16:11:50;;;;;;;;;;;;;;;;;;5025691;28;5162;-58
2024/03/28 16:14:16;;;;;;;;;;;;;;;;;;5026580;28;3353;-56
2024/03/28 16:16:41;;;;;;;;;;;;;;;;;;5026234;28;4962;-58
2024/03/28 16:19:06;;;;;;;;;;;;;;;;;;5023927;28;5029;-57
2024/03/28 16:21:31;;;;;;;;;;;;;;;;;;5027728;28;5063;-57
2024/03/28 16:23:57;;;;;;;;;;;;;;;;;;5026150;28;5207;-58
2024/03/28 16:26:22;;;;;;;;;;;;;;;;;;5023388;28;3303;-57
2024/03/28 16:28:48;;;;;;;;;;;;;;;;;;5016559;28;4511;-57
2024/03/28 16:31:13;;;;;;;;;;;;;;;;;;5022967;28;5068;-57
2024/03/28 16:33:39;;;;;;;;;;;;;;;;;;5035696;28;5120;-57
2024/03/28 16:36:05;;;;;;;;;;;;;;;;;;5013744;28;4865;-57
2024/03/28 16:38:30;;;;;;;;;;;;;;;;;;5019293;28;3323;-57
2024/03/28 16:40:55;;;;;;;;;;;;;;;;;;5020894;28;5062;-58
2024/03/28 16:43:21;;;;;;;;;;;;;;;;;;5026726;28;4997;-57
2024/03/28 16:45:56;;;;;;;;;;;;;;;;;;5029692;28;4729;-59
2024/03/28 16:48:21;;;;;;;;;;;;;;;;;;5013598;28;5144;-77
2024/03/28 16:50:46;;;;;;;;;;;;;;;;;;5028813;28;4500;-68
2024/03/28 16:53:12;;;;;;;;;;;;;;;;;;5029162;28;3797;-67
2024/03/28 16:55:37;;;;;;;;;;;;;;;;;;5025580;28;5062;-65
2024/03/28 16:58:03;;;;;;;;;;;;;;;;;;5026386;28;5151;-67
2024/03/28 17:00:30;;;;;;;;;;;;;;;;;;5024522;28;4806;-71